Decoded Metar for UKDD (DNEPROPETROVSK in UKRAINE) (IATA:DNK) | Meteo·Mobile Aviation Weather
aviador You're here:

UKDD Decoded Metar

DNEPROPETROVSK in UKRAINE
Report Time2019-01-17 22:30:00
UTC Time2019-01-17 22:55:34
Flight Rules ifr IFR
Wind220° at 12 kt
W.Decomp.*RWY 26: 8.2 kt HW 8.8 kt LCW
W.Rank220° ranks 27
Current wind is above 220° avg. (7.7)
Visibility9999 m
Phenomena:N/A
Clouds:Overcast 006 Hf
Expected CloudBase > 400 ft AGL from Temp-Dew spread
Ceiling600 ft
Temp-3°C (ISA -17)
Dew Point-4°C (93% RH)
AAT-9.8°C
QNH1015 hPa
Density Alt-1,608 ft
Elevation489 ft
Report Wrong Elevation
Raw Report
UKDD 172230Z 22006MPS 9999 OVC006 M03/M04 Q1015 R26/715070
NOSIG=

Extra information for UKDD:More info

Metar Taf Metar & Taf Last 4 Metars F.Rules Stats Wind Profile Meteogram Temp Stats Airport Information Weather charts Add Link Nearby VenuesMetar ALERT Operation Metar Decoded Social comments